createdAt,value
2019-05-29T14:01:34.035Z,100706.19
2019-05-29T14:04:06.967Z,100710.98
2019-05-29T14:06:40.661Z,100702.73
2019-05-29T14:09:13.140Z,100706.89
2019-05-29T14:11:51.980Z,100706.31
2019-05-29T14:14:24.962Z,100704.67
2019-05-29T14:16:57.904Z,100711.34
2019-05-29T14:19:30.163Z,100712.52
2019-05-29T14:22:03.028Z,100725.77
2019-05-29T14:24:35.878Z,100739.88
2019-05-29T14:27:10.017Z,100746.77
2019-05-29T14:29:49.290Z,100758.16
2019-05-29T14:32:22.211Z,100768.49
2019-05-29T14:35:04.303Z,100786.97
2019-05-29T14:37:34.372Z,100789.42
2019-05-29T14:40:07.968Z,100786.56
2019-05-29T14:42:40.153Z,100780.73
2019-05-29T14:45:13.418Z,100790.11
2019-05-29T14:47:47.572Z,100789.92
2019-05-29T14:50:20.399Z,100784.52
2019-05-29T14:52:56.528Z,100780.44
2019-05-29T14:58:52.065Z,100771.69
2019-05-29T15:01:25.711Z,100778.07
2019-05-29T15:03:58.545Z,100787.00
2019-05-29T15:06:31.968Z,100786.82
2019-05-29T15:09:05.530Z,100805.27
2019-05-29T15:15:25.954Z,100818.30
2019-05-29T15:18:08.722Z,100824.91
2019-05-29T15:20:42.346Z,100828.99
2019-05-29T15:27:02.626Z,100833.63
2019-05-29T15:29:35.400Z,100819.47
2019-05-29T15:32:08.291Z,100819.23
2019-05-29T15:34:42.476Z,100819.18
2019-05-29T15:37:22.159Z,100817.16
2019-05-29T15:39:55.393Z,100805.98
2019-05-29T15:42:28.515Z,100812.53
2019-05-29T15:45:00.783Z,100811.03
2019-05-29T15:47:33.546Z,100817.91
2019-05-29T15:50:14.078Z,100822.04
2019-05-29T15:52:47.257Z,100819.23
2019-05-29T15:55:33.243Z,100816.36
2019-05-29T15:57:57.568Z,100814.92
2019-05-29T16:00:30.322Z,100827.25
2019-05-29T16:03:03.051Z,100830.48
2019-05-29T16:05:36.051Z,100840.42
2019-05-29T16:08:09.821Z,100835.98
2019-05-29T16:10:43.337Z,100834.38
2019-05-29T16:13:17.425Z,100833.81
2019-05-29T16:15:49.981Z,100830.37
2019-05-29T16:18:29.151Z,100816.22
2019-05-29T16:20:57.306Z,100811.91
2019-05-29T16:23:35.813Z,100814.05
2019-05-29T16:26:07.942Z,100809.48
2019-05-29T16:28:41.260Z,100815.62
2019-05-29T16:31:14.865Z,100811.81
2019-05-29T16:33:47.746Z,100828.50
2019-05-29T16:36:20.882Z,100833.13
2019-05-29T16:38:55.206Z,100818.23
2019-05-29T16:41:27.928Z,100815.98
2019-05-29T16:44:00.924Z,100823.09
2019-05-29T16:46:34.325Z,100837.03
2019-05-29T16:49:07.489Z,100845.61
2019-05-29T16:51:46.704Z,100830.63
2019-05-29T16:54:19.438Z,100846.66
2019-05-29T16:56:52.173Z,100847.48
2019-05-29T16:59:29.735Z,100845.30
2019-05-29T17:02:01.028Z,100848.14
2019-05-29T17:04:33.794Z,100852.63
2019-05-29T17:07:06.530Z,100837.97
2019-05-29T17:09:39.404Z,100821.14
2019-05-29T17:12:12.395Z,100808.22
2019-05-29T17:14:45.490Z,100800.52
2019-05-29T17:17:25.339Z,100786.50
2019-05-29T17:19:58.326Z,100781.33
2019-05-29T17:22:35.218Z,100785.95
2019-05-29T17:25:08.893Z,100792.53
2019-05-29T17:27:45.980Z,100784.80
2019-05-29T17:30:22.944Z,100783.42
2019-05-29T17:32:55.981Z,100772.52
2019-05-29T17:35:28.143Z,100764.95
2019-05-29T17:38:00.863Z,100755.92
2019-05-29T17:40:33.850Z,100742.64
2019-05-29T17:43:07.406Z,100735.23
2019-05-29T17:45:40.259Z,100740.13
2019-05-29T17:48:13.546Z,100734.13
2019-05-29T17:50:46.216Z,100729.08
2019-05-29T17:53:19.891Z,100724.40
2019-05-29T17:55:52.961Z,100716.02
2019-05-29T17:58:26.680Z,100718.06
2019-05-29T18:00:59.130Z,100719.44
2019-05-29T18:03:35.269Z,100716.69
2019-05-29T18:06:16.207Z,100718.21
2019-05-29T18:08:57.052Z,100715.30
2019-05-29T18:11:31.265Z,100708.45
2019-05-29T18:14:07.456Z,100712.13
2019-05-29T18:16:37.958Z,100703.42
2019-05-29T18:19:10.928Z,100696.96
2019-05-29T18:21:43.987Z,100694.44
2019-05-29T18:24:17.633Z,100693.70
2019-05-29T18:26:54.051Z,100694.53
2019-05-29T18:29:29.473Z,100696.20
2019-05-29T18:32:06.551Z,100698.66
2019-05-29T18:34:40.710Z,100696.27
2019-05-29T18:37:13.257Z,100691.61
2019-05-29T18:39:52.853Z,100693.16
2019-05-29T18:42:27.233Z,100698.33
2019-05-29T18:45:00.188Z,100694.42
2019-05-29T18:47:33.432Z,100694.77
2019-05-29T18:50:07.654Z,100690.38
2019-05-29T18:52:52.503Z,100685.00
2019-05-29T18:55:25.299Z,100686.30
2019-05-29T19:00:38.044Z,100692.51
2019-05-29T19:03:10.429Z,100699.02
2019-05-29T19:05:42.673Z,100704.13
2019-05-29T19:08:14.874Z,100707.55
2019-05-29T19:10:47.571Z,100709.30
2019-05-29T19:13:21.700Z,100703.20
2019-05-29T19:15:54.360Z,100702.17
2019-05-29T19:18:28.277Z,100692.13
2019-05-29T19:21:01.367Z,100692.54
2019-05-29T19:23:40.995Z,100674.91
2019-05-29T19:26:14.297Z,100657.95
2019-05-29T19:28:56.716Z,100642.09
2019-05-29T19:31:29.530Z,100633.50
2019-05-29T19:34:02.061Z,100640.42
2019-05-29T19:36:35.318Z,100638.98
2019-05-29T19:39:09.863Z,100636.34
2019-05-29T19:41:49.654Z,100640.08
2019-05-29T19:44:22.435Z,100640.32
2019-05-29T19:46:55.072Z,100643.09
2019-05-29T19:49:28.874Z,100646.11
2019-05-29T19:52:01.587Z,100644.09
2019-05-29T19:54:35.705Z,100651.45
2019-05-29T19:57:08.994Z,100648.64
2019-05-29T19:59:45.030Z,100643.44
2019-05-29T20:02:17.601Z,100644.73
2019-05-29T20:04:50.837Z,100643.57
2019-05-29T20:07:23.614Z,100646.93
2019-05-29T20:09:57.021Z,100640.94
2019-05-29T20:12:29.533Z,100639.53
2019-05-29T20:15:02.451Z,100644.30
2019-05-29T20:17:36.251Z,100642.82
2019-05-29T20:20:09.795Z,100647.27
2019-05-29T20:22:42.708Z,100646.08
2019-05-29T20:25:15.986Z,100641.69
2019-05-29T20:27:49.267Z,100659.34
2019-05-29T20:30:22.717Z,100652.45
2019-05-29T20:32:55.773Z,100658.78
2019-05-29T20:35:40.575Z,100659.38
2019-05-29T20:38:19.712Z,100664.98
2019-05-29T20:40:52.107Z,100667.83
2019-05-29T20:43:31.654Z,100666.53
2019-05-29T20:46:11.170Z,100667.05
2019-05-29T20:48:44.325Z,100661.70
2019-05-29T20:51:16.729Z,100663.58
2019-05-29T20:53:49.723Z,100664.00
2019-05-29T20:56:21.856Z,100667.83
2019-05-29T20:59:02.778Z,100654.33
2019-05-29T21:01:43.015Z,100656.93
2019-05-29T21:04:09.523Z,100662.20
2019-05-29T21:06:50.055Z,100652.55
2019-05-29T21:09:23.377Z,100654.70
2019-05-29T21:11:56.493Z,100660.77
2019-05-29T21:14:29.294Z,100660.55
2019-05-29T21:17:02.201Z,100660.94
2019-05-29T21:19:36.456Z,100660.55
2019-05-29T21:22:09.090Z,100662.66
2019-05-29T21:25:00.095Z,100660.37
2019-05-29T21:27:25.794Z,100663.60
2019-05-29T21:29:58.631Z,100661.04
2019-05-29T21:32:31.575Z,100662.02
2019-05-29T21:35:08.425Z,100660.01
2019-05-29T21:37:42.375Z,100649.73
2019-05-29T21:40:15.448Z,100650.52
2019-05-29T21:42:48.274Z,100650.79
2019-05-29T21:45:20.672Z,100655.38
2019-05-29T21:47:53.482Z,100651.48
2019-05-29T21:50:25.910Z,100654.32
2019-05-29T21:52:59.614Z,100651.48
2019-05-29T21:55:32.250Z,100652.88
2019-05-29T21:58:05.192Z,100656.66
2019-05-29T22:00:48.198Z,100661.99
2019-05-29T22:03:22.057Z,100664.88
2019-05-29T22:05:54.606Z,100662.33
2019-05-29T22:08:27.722Z,100667.16
2019-05-29T22:11:01.519Z,100662.83
2019-05-29T22:13:35.444Z,100667.31
2019-05-29T22:16:08.029Z,100666.22
2019-05-29T22:18:41.251Z,100671.61
2019-05-29T22:21:13.993Z,100666.11
2019-05-29T22:23:50.992Z,100666.21
2019-05-29T22:26:23.571Z,100668.95
2019-05-29T22:28:57.346Z,100673.41
2019-05-29T22:31:30.653Z,100671.83
